sensor_id;sensor_type;location;lat;lon;timestamp;P1;durP1;ratioP1;P2;durP2;ratioP2
4278;SDS011;2153;47.744;10.580;2022-07-29T00:00:43;16.43;;;1.80;;
4278;SDS011;2153;47.744;10.580;2022-07-29T00:03:10;12.90;;;1.60;;
4278;SDS011;2153;47.744;10.580;2022-07-29T00:05:38;12.20;;;1.70;;
4278;SDS011;2153;47.744;10.580;2022-07-29T00:08:05;11.83;;;1.60;;
4278;SDS011;2153;47.744;10.580;2022-07-29T00:10:32;12.37;;;1.73;;
4278;SDS011;2153;47.744;10.580;2022-07-29T00:12:58;12.87;;;1.90;;
4278;SDS011;2153;47.744;10.580;2022-07-29T00:15:26;15.07;;;2.10;;
4278;SDS011;2153;47.744;10.580;2022-07-29T00:17:53;13.17;;;2.47;;
4278;SDS011;2153;47.744;10.580;2022-07-29T00:20:20;12.80;;;2.10;;
4278;SDS011;2153;47.744;10.580;2022-07-29T00:22:47;12.60;;;2.10;;
4278;SDS011;2153;47.744;10.580;2022-07-29T00:25:14;14.20;;;2.00;;
4278;SDS011;2153;47.744;10.580;2022-07-29T00:27:40;14.90;;;2.20;;
4278;SDS011;2153;47.744;10.580;2022-07-29T00:30:07;12.50;;;1.70;;
4278;SDS011;2153;47.744;10.580;2022-07-29T00:32:36;12.50;;;1.93;;
4278;SDS011;2153;47.744;10.580;2022-07-29T00:35:03;12.83;;;1.80;;
4278;SDS011;2153;47.744;10.580;2022-07-29T00:37:48;13.30;;;2.20;;
4278;SDS011;2153;47.744;10.580;2022-07-29T00:40:14;12.50;;;1.80;;
4278;SDS011;2153;47.744;10.580;2022-07-29T00:42:42;13.40;;;2.30;;
4278;SDS011;2153;47.744;10.580;2022-07-29T00:45:09;12.97;;;2.10;;
4278;SDS011;2153;47.744;10.580;2022-07-29T00:47:38;15.00;;;2.70;;
4278;SDS011;2153;47.744;10.580;2022-07-29T00:50:05;13.50;;;2.30;;
4278;SDS011;2153;47.744;10.580;2022-07-29T00:52:33;13.53;;;2.40;;
4278;SDS011;2153;47.744;10.580;2022-07-29T00:55:03;19.00;;;2.57;;
4278;SDS011;2153;47.744;10.580;2022-07-29T00:57:31;12.67;;;2.33;;
4278;SDS011;2153;47.744;10.580;2022-07-29T00:59:58;15.83;;;2.37;;
4278;SDS011;2153;47.744;10.580;2022-07-29T01:02:25;14.27;;;2.13;;
4278;SDS011;2153;47.744;10.580;2022-07-29T01:04:53;13.70;;;2.17;;
4278;SDS011;2153;47.744;10.580;2022-07-29T01:07:22;12.50;;;2.23;;
4278;SDS011;2153;47.744;10.580;2022-07-29T01:09:49;12.90;;;2.53;;
4278;SDS011;2153;47.744;10.580;2022-07-29T01:12:17;12.80;;;2.23;;
4278;SDS011;2153;47.744;10.580;2022-07-29T01:14:47;13.93;;;2.70;;
4278;SDS011;2153;47.744;10.580;2022-07-29T01:17:17;12.30;;;2.13;;
4278;SDS011;2153;47.744;10.580;2022-07-29T01:19:48;12.90;;;2.40;;
4278;SDS011;2153;47.744;10.580;2022-07-29T01:22:26;14.73;;;2.43;;
4278;SDS011;2153;47.744;10.580;2022-07-29T01:27:50;16.10;;;3.03;;
4278;SDS011;2153;47.744;10.580;2022-07-29T01:30:28;13.20;;;2.57;;
4278;SDS011;2153;47.744;10.580;2022-07-29T01:32:59;13.40;;;2.50;;
4278;SDS011;2153;47.744;10.580;2022-07-29T01:35:30;14.80;;;2.13;;
4278;SDS011;2153;47.744;10.580;2022-07-29T01:38:05;13.90;;;2.20;;
4278;SDS011;2153;47.744;10.580;2022-07-29T01:40:40;12.43;;;1.90;;
4278;SDS011;2153;47.744;10.580;2022-07-29T01:43:12;15.90;;;2.30;;
4278;SDS011;2153;47.744;10.580;2022-07-29T01:45:43;12.47;;;2.30;;
4278;SDS011;2153;47.744;10.580;2022-07-29T01:48:13;14.80;;;2.20;;
4278;SDS011;2153;47.744;10.580;2022-07-29T01:50:45;13.00;;;2.23;;
4278;SDS011;2153;47.744;10.580;2022-07-29T01:53:14;17.70;;;2.40;;
4278;SDS011;2153;47.744;10.580;2022-07-29T01:55:47;12.80;;;2.50;;
4278;SDS011;2153;47.744;10.580;2022-07-29T01:58:15;12.10;;;2.07;;
4278;SDS011;2153;47.744;10.580;2022-07-29T02:00:46;14.93;;;2.60;;
4278;SDS011;2153;47.744;10.580;2022-07-29T02:03:14;13.30;;;2.40;;
4278;SDS011;2153;47.744;10.580;2022-07-29T02:05:43;12.93;;;2.23;;
4278;SDS011;2153;47.744;10.580;2022-07-29T02:08:12;13.63;;;2.30;;
4278;SDS011;2153;47.744;10.580;2022-07-29T02:10:41;12.77;;;2.30;;
4278;SDS011;2153;47.744;10.580;2022-07-29T02:13:09;12.80;;;2.53;;
4278;SDS011;2153;47.744;10.580;2022-07-29T02:15:39;12.10;;;2.13;;
4278;SDS011;2153;47.744;10.580;2022-07-29T02:18:11;12.67;;;2.50;;
4278;SDS011;2153;47.744;10.580;2022-07-29T02:20:42;12.77;;;2.40;;
4278;SDS011;2153;47.744;10.580;2022-07-29T02:23:11;12.83;;;2.30;;
4278;SDS011;2153;47.744;10.580;2022-07-29T02:25:40;12.50;;;1.90;;
4278;SDS011;2153;47.744;10.580;2022-07-29T02:28:08;12.30;;;2.00;;
4278;SDS011;2153;47.744;10.580;2022-07-29T02:30:35;14.33;;;2.40;;
4278;SDS011;2153;47.744;10.580;2022-07-29T02:33:04;15.13;;;1.90;;
4278;SDS011;2153;47.744;10.580;2022-07-29T02:35:34;13.90;;;2.10;;
4278;SDS011;2153;47.744;10.580;2022-07-29T02:38:01;12.20;;;2.10;;
4278;SDS011;2153;47.744;10.580;2022-07-29T02:40:46;13.83;;;2.57;;
4278;SDS011;2153;47.744;10.580;2022-07-29T02:43:16;13.63;;;2.87;;
4278;SDS011;2153;47.744;10.580;2022-07-29T02:45:45;12.60;;;2.27;;
4278;SDS011;2153;47.744;10.580;2022-07-29T02:48:16;13.10;;;2.20;;
4278;SDS011;2153;47.744;10.580;2022-07-29T02:50:56;15.67;;;2.57;;
4278;SDS011;2153;47.744;10.580;2022-07-29T02:53:30;13.40;;;2.60;;
4278;SDS011;2153;47.744;10.580;2022-07-29T02:56:01;13.60;;;2.50;;
4278;SDS011;2153;47.744;10.580;2022-07-29T02:58:34;12.63;;;2.50;;
4278;SDS011;2153;47.744;10.580;2022-07-29T03:01:08;13.90;;;2.70;;
4278;SDS011;2153;47.744;10.580;2022-07-29T03:03:37;18.43;;;2.80;;
4278;SDS011;2153;47.744;10.580;2022-07-29T03:06:07;13.20;;;2.47;;
4278;SDS011;2153;47.744;10.580;2022-07-29T03:08:35;14.50;;;2.70;;
4278;SDS011;2153;47.744;10.580;2022-07-29T03:11:02;18.77;;;3.23;;
4278;SDS011;2153;47.744;10.580;2022-07-29T03:13:30;13.27;;;2.50;;
4278;SDS011;2153;47.744;10.580;2022-07-29T03:15:57;13.90;;;2.90;;
4278;SDS011;2153;47.744;10.580;2022-07-29T03:18:24;22.50;;;2.97;;
4278;SDS011;2153;47.744;10.580;2022-07-29T03:20:51;13.60;;;2.97;;
4278;SDS011;2153;47.744;10.580;2022-07-29T03:23:20;16.83;;;3.10;;
4278;SDS011;2153;47.744;10.580;2022-07-29T03:25:47;13.80;;;3.37;;
4278;SDS011;2153;47.744;10.580;2022-07-29T03:28:14;17.40;;;3.10;;
4278;SDS011;2153;47.744;10.580;2022-07-29T03:30:41;13.03;;;2.40;;
4278;SDS011;2153;47.744;10.580;2022-07-29T03:33:08;13.57;;;2.50;;
4278;SDS011;2153;47.744;10.580;2022-07-29T03:35:35;18.07;;;2.77;;
4278;SDS011;2153;47.744;10.580;2022-07-29T03:38:01;15.00;;;2.83;;
4278;SDS011;2153;47.744;10.580;2022-07-29T03:40:31;12.93;;;2.53;;
4278;SDS011;2153;47.744;10.580;2022-07-29T03:43:03;13.20;;;2.70;;
4278;SDS011;2153;47.744;10.580;2022-07-29T03:45:32;15.87;;;2.60;;
4278;SDS011;2153;47.744;10.580;2022-07-29T03:48:03;13.27;;;2.50;;
4278;SDS011;2153;47.744;10.580;2022-07-29T03:50:33;13.30;;;2.63;;
4278;SDS011;2153;47.744;10.580;2022-07-29T03:53:00;17.03;;;2.37;;
4278;SDS011;2153;47.744;10.580;2022-07-29T03:55:28;15.20;;;2.63;;
4278;SDS011;2153;47.744;10.580;2022-07-29T03:57:58;18.27;;;2.47;;
4278;SDS011;2153;47.744;10.580;2022-07-29T04:00:27;16.27;;;2.47;;
4278;SDS011;2153;47.744;10.580;2022-07-29T04:02:54;14.83;;;2.10;;
4278;SDS011;2153;47.744;10.580;2022-07-29T04:05:21;13.53;;;2.10;;
4278;SDS011;2153;47.744;10.580;2022-07-29T04:07:48;14.80;;;2.20;;
4278;SDS011;2153;47.744;10.580;2022-07-29T04:10:15;15.50;;;2.97;;
4278;SDS011;2153;47.744;10.580;2022-07-29T04:12:43;14.13;;;2.50;;
4278;SDS011;2153;47.744;10.580;2022-07-29T04:15:12;13.60;;;2.67;;
4278;SDS011;2153;47.744;10.580;2022-07-29T04:17:38;13.50;;;3.00;;
4278;SDS011;2153;47.744;10.580;2022-07-29T04:20:05;13.43;;;2.80;;
4278;SDS011;2153;47.744;10.580;2022-07-29T04:22:33;15.07;;;2.87;;
4278;SDS011;2153;47.744;10.580;2022-07-29T04:24:59;13.20;;;2.77;;
4278;SDS011;2153;47.744;10.580;2022-07-29T04:27:26;15.43;;;2.70;;
4278;SDS011;2153;47.744;10.580;2022-07-29T04:29:53;13.53;;;2.73;;
4278;SDS011;2153;47.744;10.580;2022-07-29T04:32:21;13.97;;;3.17;;
4278;SDS011;2153;47.744;10.580;2022-07-29T04:34:48;13.40;;;2.80;;
4278;SDS011;2153;47.744;10.580;2022-07-29T04:37:14;15.80;;;2.80;;
4278;SDS011;2153;47.744;10.580;2022-07-29T04:39:41;16.03;;;2.70;;
4278;SDS011;2153;47.744;10.580;2022-07-29T04:42:08;14.30;;;2.30;;
4278;SDS011;2153;47.744;10.580;2022-07-29T04:44:35;15.43;;;2.90;;
4278;SDS011;2153;47.744;10.580;2022-07-29T04:47:01;13.43;;;2.70;;
4278;SDS011;2153;47.744;10.580;2022-07-29T04:49:30;15.23;;;2.93;;
4278;SDS011;2153;47.744;10.580;2022-07-29T04:51:57;14.00;;;2.90;;
4278;SDS011;2153;47.744;10.580;2022-07-29T04:54:23;14.90;;;2.63;;
4278;SDS011;2153;47.744;10.580;2022-07-29T04:56:50;15.07;;;2.50;;
4278;SDS011;2153;47.744;10.580;2022-07-29T04:59:17;13.80;;;2.73;;
4278;SDS011;2153;47.744;10.580;2022-07-29T05:01:44;15.80;;;2.47;;
4278;SDS011;2153;47.744;10.580;2022-07-29T05:04:10;16.87;;;2.50;;
4278;SDS011;2153;47.744;10.580;2022-07-29T05:06:38;13.70;;;2.40;;
4278;SDS011;2153;47.744;10.580;2022-07-29T05:09:05;13.67;;;2.70;;
4278;SDS011;2153;47.744;10.580;2022-07-29T05:11:32;15.53;;;2.73;;
4278;SDS011;2153;47.744;10.580;2022-07-29T05:13:58;15.30;;;3.00;;
4278;SDS011;2153;47.744;10.580;2022-07-29T05:16:25;13.27;;;2.33;;
4278;SDS011;2153;47.744;10.580;2022-07-29T05:18:52;14.93;;;2.43;;
4278;SDS011;2153;47.744;10.580;2022-07-29T05:21:19;13.70;;;2.90;;
4278;SDS011;2153;47.744;10.580;2022-07-29T05:23:47;12.60;;;2.30;;
4278;SDS011;2153;47.744;10.580;2022-07-29T05:26:14;14.20;;;2.90;;
4278;SDS011;2153;47.744;10.580;2022-07-29T05:28:41;13.97;;;2.70;;
4278;SDS011;2153;47.744;10.580;2022-07-29T05:31:08;12.17;;;2.50;;
4278;SDS011;2153;47.744;10.580;2022-07-29T05:33:35;15.10;;;2.50;;
4278;SDS011;2153;47.744;10.580;2022-07-29T05:36:02;14.30;;;2.70;;
4278;SDS011;2153;47.744;10.580;2022-07-29T05:38:30;13.30;;;2.50;;
4278;SDS011;2153;47.744;10.580;2022-07-29T05:40:58;12.87;;;2.40;;
4278;SDS011;2153;47.744;10.580;2022-07-29T05:43:25;12.40;;;2.03;;
4278;SDS011;2153;47.744;10.580;2022-07-29T05:45:52;12.43;;;2.50;;
4278;SDS011;2153;47.744;10.580;2022-07-29T05:48:19;15.53;;;2.40;;
4278;SDS011;2153;47.744;10.580;2022-07-29T05:50:46;12.50;;;2.13;;
4278;SDS011;2153;47.744;10.580;2022-07-29T05:53:12;12.63;;;2.40;;
4278;SDS011;2153;47.744;10.580;2022-07-29T05:55:39;15.93;;;2.17;;
4278;SDS011;2153;47.744;10.580;2022-07-29T05:58:07;14.13;;;2.80;;
4278;SDS011;2153;47.744;10.580;2022-07-29T06:00:34;21.90;;;2.30;;
4278;SDS011;2153;47.744;10.580;2022-07-29T06:03:01;13.83;;;2.50;;
4278;SDS011;2153;47.744;10.580;2022-07-29T06:05:27;12.07;;;2.00;;
4278;SDS011;2153;47.744;10.580;2022-07-29T06:07:54;15.20;;;2.30;;
4278;SDS011;2153;47.744;10.580;2022-07-29T06:10:21;15.80;;;2.50;;
4278;SDS011;2153;47.744;10.580;2022-07-29T06:12:48;13.70;;;2.73;;
4278;SDS011;2153;47.744;10.580;2022-07-29T06:15:16;14.63;;;2.83;;
4278;SDS011;2153;47.744;10.580;2022-07-29T06:17:43;13.20;;;2.40;;
4278;SDS011;2153;47.744;10.580;2022-07-29T06:20:10;12.77;;;1.97;;
4278;SDS011;2153;47.744;10.580;2022-07-29T06:22:37;12.97;;;2.30;;
4278;SDS011;2153;47.744;10.580;2022-07-29T06:25:04;12.07;;;2.00;;
4278;SDS011;2153;47.744;10.580;2022-07-29T06:27:31;12.20;;;2.00;;
4278;SDS011;2153;47.744;10.580;2022-07-29T06:29:58;14.83;;;1.90;;
4278;SDS011;2153;47.744;10.580;2022-07-29T06:32:27;11.90;;;1.80;;
4278;SDS011;2153;47.744;10.580;2022-07-29T06:34:56;16.20;;;2.10;;
4278;SDS011;2153;47.744;10.580;2022-07-29T06:37:22;11.57;;;1.90;;
4278;SDS011;2153;47.744;10.580;2022-07-29T06:39:49;11.13;;;1.50;;
4278;SDS011;2153;47.744;10.580;2022-07-29T06:42:37;11.40;;;1.70;;
4278;SDS011;2153;47.744;10.580;2022-07-29T06:45:07;11.43;;;1.73;;
4278;SDS011;2153;47.744;10.580;2022-07-29T06:47:36;11.30;;;1.57;;
4278;SDS011;2153;47.744;10.580;2022-07-29T06:50:03;11.90;;;1.70;;
4278;SDS011;2153;47.744;10.580;2022-07-29T06:52:30;13.70;;;1.80;;
4278;SDS011;2153;47.744;10.580;2022-07-29T06:54:57;11.87;;;1.67;;
4278;SDS011;2153;47.744;10.580;2022-07-29T06:57:24;12.07;;;2.00;;
4278;SDS011;2153;47.744;10.580;2022-07-29T06:59:51;12.20;;;1.57;;
4278;SDS011;2153;47.744;10.580;2022-07-29T07:02:18;13.93;;;1.97;;
4278;SDS011;2153;47.744;10.580;2022-07-29T07:04:46;11.17;;;1.53;;
4278;SDS011;2153;47.744;10.580;2022-07-29T07:07:13;12.27;;;2.00;;
4278;SDS011;2153;47.744;10.580;2022-07-29T07:09:39;13.90;;;2.17;;
4278;SDS011;2153;47.744;10.580;2022-07-29T07:12:06;12.33;;;2.17;;
4278;SDS011;2153;47.744;10.580;2022-07-29T07:14:33;11.80;;;1.60;;
4278;SDS011;2153;47.744;10.580;2022-07-29T07:17:00;12.30;;;1.77;;
4278;SDS011;2153;47.744;10.580;2022-07-29T07:19:28;12.87;;;1.80;;
4278;SDS011;2153;47.744;10.580;2022-07-29T07:21:56;12.10;;;1.70;;
4278;SDS011;2153;47.744;10.580;2022-07-29T07:24:23;11.60;;;2.10;;
4278;SDS011;2153;47.744;10.580;2022-07-29T07:26:50;11.50;;;1.60;;
4278;SDS011;2153;47.744;10.580;2022-07-29T07:29:17;11.27;;;1.63;;
4278;SDS011;2153;47.744;10.580;2022-07-29T07:31:43;19.10;;;2.00;;
4278;SDS011;2153;47.744;10.580;2022-07-29T07:34:10;11.53;;;1.70;;
4278;SDS011;2153;47.744;10.580;2022-07-29T07:36:37;12.10;;;2.03;;
4278;SDS011;2153;47.744;10.580;2022-07-29T07:39:05;11.57;;;1.93;;
4278;SDS011;2153;47.744;10.580;2022-07-29T07:41:32;13.50;;;1.70;;
4278;SDS011;2153;47.744;10.580;2022-07-29T07:43:59;11.60;;;1.60;;
4278;SDS011;2153;47.744;10.580;2022-07-29T07:46:25;11.70;;;1.70;;
4278;SDS011;2153;47.744;10.580;2022-07-29T07:48:52;11.80;;;1.90;;
4278;SDS011;2153;47.744;10.580;2022-07-29T07:51:19;14.13;;;2.13;;
4278;SDS011;2153;47.744;10.580;2022-07-29T07:53:46;13.53;;;2.00;;
4278;SDS011;2153;47.744;10.580;2022-07-29T07:56:16;12.17;;;1.97;;
4278;SDS011;2153;47.744;10.580;2022-07-29T07:58:42;12.23;;;2.10;;
4278;SDS011;2153;47.744;10.580;2022-07-29T08:01:09;12.13;;;1.77;;
4278;SDS011;2153;47.744;10.580;2022-07-29T08:03:36;14.30;;;2.50;;
4278;SDS011;2153;47.744;10.580;2022-07-29T08:06:03;11.90;;;2.20;;
4278;SDS011;2153;47.744;10.580;2022-07-29T08:08:30;13.20;;;2.33;;
4278;SDS011;2153;47.744;10.580;2022-07-29T08:10:57;12.57;;;2.33;;
4278;SDS011;2153;47.744;10.580;2022-07-29T08:13:28;13.10;;;2.43;;
4278;SDS011;2153;47.744;10.580;2022-07-29T08:15:55;15.47;;;2.30;;
4278;SDS011;2153;47.744;10.580;2022-07-29T08:18:25;12.47;;;2.57;;
4278;SDS011;2153;47.744;10.580;2022-07-29T08:20:52;15.90;;;2.60;;
4278;SDS011;2153;47.744;10.580;2022-07-29T08:23:19;13.43;;;2.40;;
4278;SDS011;2153;47.744;10.580;2022-07-29T08:25:46;12.60;;;2.30;;
4278;SDS011;2153;47.744;10.580;2022-07-29T08:28:13;13.80;;;1.93;;
4278;SDS011;2153;47.744;10.580;2022-07-29T08:30:41;12.83;;;2.40;;
4278;SDS011;2153;47.744;10.580;2022-07-29T08:33:08;13.40;;;2.70;;
4278;SDS011;2153;47.744;10.580;2022-07-29T08:35:35;13.40;;;2.50;;
4278;SDS011;2153;47.744;10.580;2022-07-29T08:38:02;18.20;;;2.40;;
4278;SDS011;2153;47.744;10.580;2022-07-29T08:40:29;14.53;;;3.07;;
4278;SDS011;2153;47.744;10.580;2022-07-29T08:42:56;13.70;;;3.13;;
4278;SDS011;2153;47.744;10.580;2022-07-29T08:45:22;14.40;;;3.03;;
4278;SDS011;2153;47.744;10.580;2022-07-29T08:47:52;14.33;;;2.93;;
4278;SDS011;2153;47.744;10.580;2022-07-29T08:50:19;14.83;;;2.50;;
4278;SDS011;2153;47.744;10.580;2022-07-29T08:52:45;16.50;;;2.93;;
4278;SDS011;2153;47.744;10.580;2022-07-29T08:55:15;12.53;;;2.70;;
4278;SDS011;2153;47.744;10.580;2022-07-29T08:57:43;12.10;;;2.53;;
4278;SDS011;2153;47.744;10.580;2022-07-29T09:00:10;11.70;;;2.00;;
4278;SDS011;2153;47.744;10.580;2022-07-29T09:02:39;12.30;;;2.20;;
4278;SDS011;2153;47.744;10.580;2022-07-29T09:05:09;12.33;;;2.30;;
4278;SDS011;2153;47.744;10.580;2022-07-29T09:07:36;20.23;;;2.47;;
4278;SDS011;2153;47.744;10.580;2022-07-29T09:10:05;13.63;;;2.83;;
4278;SDS011;2153;47.744;10.580;2022-07-29T09:12:32;20.83;;;2.53;;
4278;SDS011;2153;47.744;10.580;2022-07-29T09:14:59;13.07;;;2.60;;
4278;SDS011;2153;47.744;10.580;2022-07-29T09:17:42;12.50;;;2.80;;
4278;SDS011;2153;47.744;10.580;2022-07-29T09:20:12;13.43;;;2.87;;
4278;SDS011;2153;47.744;10.580;2022-07-29T09:22:40;15.67;;;2.57;;
4278;SDS011;2153;47.744;10.580;2022-07-29T09:25:07;16.10;;;2.80;;
4278;SDS011;2153;47.744;10.580;2022-07-29T09:27:34;18.60;;;2.80;;
4278;SDS011;2153;47.744;10.580;2022-07-29T09:30:02;16.00;;;2.70;;
4278;SDS011;2153;47.744;10.580;2022-07-29T09:32:30;12.50;;;2.93;;
4278;SDS011;2153;47.744;10.580;2022-07-29T09:37:50;16.43;;;2.93;;
4278;SDS011;2153;47.744;10.580;2022-07-29T09:40:18;15.93;;;2.43;;
4278;SDS011;2153;47.744;10.580;2022-07-29T09:42:46;18.03;;;2.40;;
4278;SDS011;2153;47.744;10.580;2022-07-29T09:45:13;19.90;;;2.70;;
4278;SDS011;2153;47.744;10.580;2022-07-29T09:47:53;12.20;;;2.60;;
4278;SDS011;2153;47.744;10.580;2022-07-29T09:50:34;13.40;;;2.63;;
4278;SDS011;2153;47.744;10.580;2022-07-29T09:53:01;11.27;;;2.20;;
4278;SDS011;2153;47.744;10.580;2022-07-29T09:55:28;11.20;;;2.23;;
4278;SDS011;2153;47.744;10.580;2022-07-29T09:57:54;12.50;;;2.30;;
4278;SDS011;2153;47.744;10.580;2022-07-29T10:00:41;13.03;;;2.57;;
4278;SDS011;2153;47.744;10.580;2022-07-29T10:03:08;12.60;;;2.40;;
4278;SDS011;2153;47.744;10.580;2022-07-29T10:05:36;10.90;;;1.70;;
4278;SDS011;2153;47.744;10.580;2022-07-29T10:08:04;12.47;;;2.50;;
4278;SDS011;2153;47.744;10.580;2022-07-29T10:10:33;14.03;;;2.20;;
4278;SDS011;2153;47.744;10.580;2022-07-29T10:13:02;11.50;;;2.30;;
4278;SDS011;2153;47.744;10.580;2022-07-29T10:15:31;12.00;;;2.00;;
4278;SDS011;2153;47.744;10.580;2022-07-29T10:18:02;13.67;;;1.87;;
4278;SDS011;2153;47.744;10.580;2022-07-29T10:20:29;11.97;;;2.20;;
4278;SDS011;2153;47.744;10.580;2022-07-29T10:22:57;11.53;;;2.00;;
4278;SDS011;2153;47.744;10.580;2022-07-29T10:25:24;12.47;;;2.10;;
4278;SDS011;2153;47.744;10.580;2022-07-29T10:27:52;13.63;;;1.80;;
4278;SDS011;2153;47.744;10.580;2022-07-29T10:30:20;11.20;;;2.07;;
4278;SDS011;2153;47.744;10.580;2022-07-29T10:32:54;12.80;;;2.20;;
4278;SDS011;2153;47.744;10.580;2022-07-29T10:38:44;10.90;;;1.53;;
4278;SDS011;2153;47.744;10.580;2022-07-29T10:41:23;12.60;;;2.33;;
4278;SDS011;2153;47.744;10.580;2022-07-29T10:44:08;11.10;;;1.90;;
4278;SDS011;2153;47.744;10.580;2022-07-29T10:46:39;12.70;;;1.90;;
4278;SDS011;2153;47.744;10.580;2022-07-29T10:49:08;12.37;;;2.03;;
4278;SDS011;2153;47.744;10.580;2022-07-29T10:54:43;14.00;;;1.90;;
4278;SDS011;2153;47.744;10.580;2022-07-29T10:57:12;11.47;;;1.90;;
4278;SDS011;2153;47.744;10.580;2022-07-29T10:59:41;16.40;;;2.07;;
4278;SDS011;2153;47.744;10.580;2022-07-29T11:05:17;12.97;;;2.30;;
4278;SDS011;2153;47.744;10.580;2022-07-29T11:10:46;11.70;;;2.23;;
4278;SDS011;2153;47.744;10.580;2022-07-29T11:16:11;11.07;;;1.90;;
4278;SDS011;2153;47.744;10.580;2022-07-29T11:21:39;11.07;;;1.80;;
4278;SDS011;2153;47.744;10.580;2022-07-29T11:24:13;11.40;;;1.80;;
4278;SDS011;2153;47.744;10.580;2022-07-29T11:26:41;21.43;;;2.30;;
4278;SDS011;2153;47.744;10.580;2022-07-29T11:29:15;12.23;;;2.20;;
4278;SDS011;2153;47.744;10.580;2022-07-29T11:31:45;11.63;;;2.03;;
4278;SDS011;2153;47.744;10.580;2022-07-29T11:34:23;11.90;;;2.17;;
4278;SDS011;2153;47.744;10.580;2022-07-29T11:40:08;11.77;;;2.10;;
4278;SDS011;2153;47.744;10.580;2022-07-29T11:42:46;12.50;;;2.07;;
4278;SDS011;2153;47.744;10.580;2022-07-29T11:45:15;13.93;;;1.80;;
4278;SDS011;2153;47.744;10.580;2022-07-29T11:47:53;11.83;;;2.00;;
4278;SDS011;2153;47.744;10.580;2022-07-29T11:50:29;11.83;;;2.30;;
4278;SDS011;2153;47.744;10.580;2022-07-29T11:52:57;12.30;;;2.23;;
4278;SDS011;2153;47.744;10.580;2022-07-29T11:55:25;11.70;;;2.10;;
4278;SDS011;2153;47.744;10.580;2022-07-29T11:57:54;11.93;;;1.83;;
4278;SDS011;2153;47.744;10.580;2022-07-29T12:00:25;12.47;;;2.40;;
4278;SDS011;2153;47.744;10.580;2022-07-29T12:02:54;11.97;;;2.20;;
4278;SDS011;2153;47.744;10.580;2022-07-29T12:05:29;13.37;;;2.00;;
4278;SDS011;2153;47.744;10.580;2022-07-29T12:10:47;12.60;;;2.37;;
4278;SDS011;2153;47.744;10.580;2022-07-29T12:13:16;12.30;;;2.43;;
4278;SDS011;2153;47.744;10.580;2022-07-29T12:15:51;12.27;;;2.10;;
4278;SDS011;2153;47.744;10.580;2022-07-29T12:18:18;12.67;;;2.20;;
4278;SDS011;2153;47.744;10.580;2022-07-29T12:20:46;11.40;;;2.00;;
4278;SDS011;2153;47.744;10.580;2022-07-29T12:23:14;11.30;;;1.90;;
4278;SDS011;2153;47.744;10.580;2022-07-29T12:25:42;11.60;;;2.23;;
4278;SDS011;2153;47.744;10.580;2022-07-29T12:28:10;11.53;;;2.20;;
4278;SDS011;2153;47.744;10.580;2022-07-29T12:30:43;13.10;;;1.60;;
4278;SDS011;2153;47.744;10.580;2022-07-29T12:33:16;13.90;;;2.13;;
4278;SDS011;2153;47.744;10.580;2022-07-29T12:35:45;13.63;;;1.73;;
4278;SDS011;2153;47.744;10.580;2022-07-29T12:38:13;11.70;;;2.07;;
4278;SDS011;2153;47.744;10.580;2022-07-29T12:40:41;10.50;;;1.70;;
4278;SDS011;2153;47.744;10.580;2022-07-29T12:43:09;12.13;;;1.90;;
4278;SDS011;2153;47.744;10.580;2022-07-29T12:45:37;11.03;;;1.80;;
4278;SDS011;2153;47.744;10.580;2022-07-29T12:48:06;11.23;;;1.87;;
4278;SDS011;2153;47.744;10.580;2022-07-29T12:50:34;11.50;;;1.93;;
4278;SDS011;2153;47.744;10.580;2022-07-29T12:53:09;13.33;;;1.93;;
4278;SDS011;2153;47.744;10.580;2022-07-29T12:55:37;11.20;;;1.90;;
4278;SDS011;2153;47.744;10.580;2022-07-29T12:58:05;14.40;;;1.90;;
4278;SDS011;2153;47.744;10.580;2022-07-29T13:00:32;11.80;;;2.30;;
4278;SDS011;2153;47.744;10.580;2022-07-29T13:02:59;10.70;;;1.80;;
4278;SDS011;2153;47.744;10.580;2022-07-29T13:05:39;10.80;;;1.70;;
4278;SDS011;2153;47.744;10.580;2022-07-29T13:08:10;12.80;;;2.10;;
4278;SDS011;2153;47.744;10.580;2022-07-29T13:10:38;10.30;;;1.80;;
4278;SDS011;2153;47.744;10.580;2022-07-29T13:13:05;10.83;;;1.80;;
4278;SDS011;2153;47.744;10.580;2022-07-29T13:15:34;13.30;;;1.80;;
4278;SDS011;2153;47.744;10.580;2022-07-29T13:18:01;11.33;;;2.27;;
4278;SDS011;2153;47.744;10.580;2022-07-29T13:20:29;10.67;;;1.83;;
4278;SDS011;2153;47.744;10.580;2022-07-29T13:22:58;11.10;;;2.07;;
4278;SDS011;2153;47.744;10.580;2022-07-29T13:25:26;10.43;;;1.67;;
4278;SDS011;2153;47.744;10.580;2022-07-29T13:27:54;10.20;;;1.70;;
4278;SDS011;2153;47.744;10.580;2022-07-29T13:30:21;10.53;;;1.67;;
4278;SDS011;2153;47.744;10.580;2022-07-29T13:32:49;13.50;;;1.90;;
4278;SDS011;2153;47.744;10.580;2022-07-29T13:35:16;11.27;;;1.70;;
4278;SDS011;2153;47.744;10.580;2022-07-29T13:37:44;10.23;;;1.67;;
4278;SDS011;2153;47.744;10.580;2022-07-29T13:40:12;17.00;;;1.97;;
4278;SDS011;2153;47.744;10.580;2022-07-29T13:42:40;10.47;;;1.70;;
4278;SDS011;2153;47.744;10.580;2022-07-29T13:45:08;11.20;;;1.90;;
4278;SDS011;2153;47.744;10.580;2022-07-29T13:47:35;10.90;;;1.70;;
4278;SDS011;2153;47.744;10.580;2022-07-29T13:50:02;10.93;;;1.80;;
4278;SDS011;2153;47.744;10.580;2022-07-29T13:52:30;10.83;;;1.70;;
4278;SDS011;2153;47.744;10.580;2022-07-29T13:54:57;11.20;;;1.70;;
4278;SDS011;2153;47.744;10.580;2022-07-29T13:57:25;10.60;;;1.60;;
4278;SDS011;2153;47.744;10.580;2022-07-29T13:59:53;11.23;;;1.80;;
4278;SDS011;2153;47.744;10.580;2022-07-29T14:02:20;10.70;;;1.80;;
4278;SDS011;2153;47.744;10.580;2022-07-29T14:04:47;10.97;;;1.90;;
4278;SDS011;2153;47.744;10.580;2022-07-29T14:07:13;13.40;;;2.10;;
4278;SDS011;2153;47.744;10.580;2022-07-29T14:09:40;12.17;;;1.60;;
4278;SDS011;2153;47.744;10.580;2022-07-29T14:12:07;11.80;;;1.77;;
4278;SDS011;2153;47.744;10.580;2022-07-29T14:14:36;10.70;;;1.70;;
4278;SDS011;2153;47.744;10.580;2022-07-29T14:17:02;11.17;;;1.90;;
4278;SDS011;2153;47.744;10.580;2022-07-29T14:19:31;12.37;;;2.20;;
4278;SDS011;2153;47.744;10.580;2022-07-29T14:22:01;11.17;;;1.90;;
4278;SDS011;2153;47.744;10.580;2022-07-29T14:24:28;11.53;;;2.20;;
4278;SDS011;2153;47.744;10.580;2022-07-29T14:26:55;16.50;;;1.90;;
4278;SDS011;2153;47.744;10.580;2022-07-29T14:29:22;15.47;;;2.63;;
4278;SDS011;2153;47.744;10.580;2022-07-29T14:31:50;11.20;;;1.90;;
4278;SDS011;2153;47.744;10.580;2022-07-29T14:34:17;10.97;;;2.07;;
4278;SDS011;2153;47.744;10.580;2022-07-29T14:36:43;14.00;;;2.13;;
4278;SDS011;2153;47.744;10.580;2022-07-29T14:39:10;12.60;;;2.27;;
4278;SDS011;2153;47.744;10.580;2022-07-29T14:41:37;11.23;;;2.13;;
4278;SDS011;2153;47.744;10.580;2022-07-29T14:44:04;11.17;;;1.90;;
4278;SDS011;2153;47.744;10.580;2022-07-29T14:46:30;12.17;;;2.60;;
4278;SDS011;2153;47.744;10.580;2022-07-29T14:48:58;12.93;;;2.30;;
4278;SDS011;2153;47.744;10.580;2022-07-29T14:51:25;13.90;;;2.30;;
4278;SDS011;2153;47.744;10.580;2022-07-29T14:53:52;19.33;;;2.40;;
4278;SDS011;2153;47.744;10.580;2022-07-29T14:56:21;11.30;;;2.00;;
4278;SDS011;2153;47.744;10.580;2022-07-29T14:58:47;13.00;;;2.73;;
4278;SDS011;2153;47.744;10.580;2022-07-29T15:01:14;11.90;;;2.00;;
4278;SDS011;2153;47.744;10.580;2022-07-29T15:03:41;12.50;;;2.50;;
4278;SDS011;2153;47.744;10.580;2022-07-29T15:06:09;11.80;;;1.90;;
4278;SDS011;2153;47.744;10.580;2022-07-29T15:08:36;14.17;;;2.07;;
4278;SDS011;2153;47.744;10.580;2022-07-29T15:11:03;12.60;;;2.00;;
4278;SDS011;2153;47.744;10.580;2022-07-29T15:13:29;12.50;;;2.10;;
4278;SDS011;2153;47.744;10.580;2022-07-29T15:15:56;11.80;;;1.97;;
4278;SDS011;2153;47.744;10.580;2022-07-29T15:18:23;12.43;;;2.40;;
4278;SDS011;2153;47.744;10.580;2022-07-29T15:20:49;13.87;;;2.20;;
4278;SDS011;2153;47.744;10.580;2022-07-29T15:23:18;14.50;;;2.63;;
4278;SDS011;2153;47.744;10.580;2022-07-29T15:25:44;14.30;;;1.77;;